Time;durP1;ratioP1;P1;durP2;ratioP2;P2;SDS_P1;SDS_P2;PMS_P1;PMS_P2;Temp;Humidity;BMP_temperature;BMP_pressure;BME280_temperature;BME280_humidity;BME280_pressure;Samples;Min_cycle;Max_cycle;Signal;HPM_P1;HPM_P2
2023/04/06 00:01:30;;;;;;;6.85;4.55;;;;;;;1.97;90.58;101870.13;4963755;28;20030;-75
2023/04/06 00:03:56;;;;;;;6.75;4.45;;;;;;;1.96;91.19;101866.63;4980590;28;20096;-75
2023/04/06 00:06:21;;;;;;;8.70;4.53;;;;;;;1.95;91.57;101866.66;4995612;28;20046;-75
2023/04/06 00:08:47;;;;;;;9.85;4.05;;;;;;;1.94;91.72;101863.16;4996665;28;20110;-75
2023/04/06 00:11:12;;;;;;;6.75;4.03;;;;;;;1.93;91.91;101861.41;4982641;28;20088;-75
2023/04/06 00:13:38;;;;;;;8.68;3.88;;;;;;;1.90;92.10;101859.63;4978709;28;20141;-75
2023/04/06 00:16:05;;;;;;;6.78;4.07;;;;;;;1.90;92.54;101853.53;4978811;28;20037;-76
2023/04/06 00:18:31;;;;;;;7.55;4.60;;;;;;;1.86;92.74;101850.00;4985830;28;20030;-75
2023/04/06 00:20:56;;;;;;;7.05;4.57;;;;;;;1.85;93.06;101844.81;4995383;28;20041;-75
2023/04/06 00:23:22;;;;;;;7.38;4.32;;;;;;;1.83;92.87;101842.19;4965975;28;20125;-75
2023/04/06 00:25:47;;;;;;;7.95;4.82;;;;;;;1.81;92.66;101837.81;4996071;28;20053;-75
2023/04/06 00:28:13;;;;;;;7.13;4.43;;;;;;;1.79;92.57;101836.94;4992628;28;20132;-75
2023/04/06 00:30:39;;;;;;;6.07;4.22;;;;;;;1.79;92.47;101844.75;4991050;28;20052;-75
2023/04/06 00:33:05;;;;;;;7.00;4.28;;;;;;;1.78;92.60;101843.03;4989137;28;20270;-75
2023/04/06 00:35:30;;;;;;;10.18;4.40;;;;;;;1.75;92.26;101830.81;4962216;28;20474;-75
2023/04/06 00:37:56;;;;;;;7.53;4.43;;;;;;;1.73;92.26;101828.19;4975660;28;20037;-75
2023/04/06 00:40:22;;;;;;;7.35;4.53;;;;;;;1.71;92.42;101826.41;4978539;28;20050;-76
2023/04/06 00:42:47;;;;;;;9.40;4.55;;;;;;;1.70;92.54;101822.06;4962986;28;20081;-75
2023/04/06 00:45:13;;;;;;;6.70;4.75;;;;;;;1.68;92.73;101816.81;4990193;28;20036;-75
2023/04/06 00:47:38;;;;;;;9.65;4.22;;;;;;;1.68;92.48;101821.19;4974664;28;20230;-75
2023/04/06 00:50:04;;;;;;;6.70;3.88;;;;;;;1.65;92.20;101811.59;4946398;28;20501;-75
2023/04/06 00:52:30;;;;;;;7.25;4.68;;;;;;;1.63;92.47;101815.91;4992348;28;20038;-75
2023/04/06 00:54:55;;;;;;;7.75;4.30;;;;;;;1.61;93.17;101817.63;4992304;28;20037;-75
2023/04/06 00:57:21;;;;;;;7.38;4.70;;;;;;;1.58;92.80;101813.25;4991420;28;20121;-75
2023/04/06 00:59:47;;;;;;;7.20;4.28;;;;;;;1.55;92.82;101812.38;4990008;28;20037;-75
2023/04/06 01:02:12;;;;;;;8.02;4.43;;;;;;;1.52;92.92;101810.59;4992128;28;20148;-75
2023/04/06 01:04:38;;;;;;;10.00;4.35;;;;;;;1.49;93.00;101803.63;4977707;28;20478;-75
2023/04/06 01:07:03;;;;;;;6.03;4.22;;;;;;;1.47;92.93;101794.91;4989942;28;20103;-75
2023/04/06 01:09:29;;;;;;;8.65;4.75;;;;;;;1.46;93.01;101798.38;4975160;28;20420;-75
2023/04/06 01:11:56;;;;;;;5.95;4.20;;;;;;;1.44;93.37;101792.28;4961587;28;20489;-75
2023/04/06 01:14:22;;;;;;;8.50;4.78;;;;;;;1.42;92.94;101788.78;4991440;28;20446;-74
2023/04/06 01:16:48;;;;;;;6.25;4.20;;;;;;;1.40;93.70;101785.28;4978046;28;21675;-75
2023/04/06 01:19:13;;;;;;;8.05;4.40;;;;;;;1.39;93.82;101782.66;4972224;28;20038;-74
2023/04/06 01:21:40;;;;;;;7.30;4.40;;;;;;;1.38;93.83;101787.03;4991043;28;20035;-74
2023/04/06 01:24:06;;;;;;;7.85;4.63;;;;;;;1.35;94.22;101780.03;4979206;28;20104;-74
2023/04/06 01:26:32;;;;;;;6.68;4.30;;;;;;;1.33;94.07;101781.78;4963188;28;20029;-75
2023/04/06 01:28:58;;;;;;;7.93;4.40;;;;;;;1.30;94.19;101781.72;4977496;28;20229;-74
2023/04/06 01:31:24;;;;;;;6.60;4.10;;;;;;;1.29;94.25;101786.94;4979583;28;20038;-74
2023/04/06 01:33:50;;;;;;;6.75;4.68;;;;;;;1.25;94.31;101770.38;4977845;28;20038;-74
2023/04/06 01:36:15;;;;;;;11.65;5.47;;;;;;;1.25;94.84;101774.75;4964606;28;20748;-76
2023/04/06 01:38:41;;;;;;;6.75;4.55;;;;;;;1.21;94.49;101772.09;4995574;28;20042;-74
2023/04/06 01:41:07;;;;;;;9.02;5.10;;;;;;;1.19;94.83;101765.09;4975636;28;20046;-74
2023/04/06 01:43:33;;;;;;;9.27;4.85;;;;;;;1.16;95.33;101768.59;4976652;28;20039;-74
2023/04/06 01:45:59;;;;;;;6.22;4.55;;;;;;;1.14;95.45;101757.25;4980165;28;20041;-75
2023/04/06 01:48:25;;;;;;;7.22;4.68;;;;;;;1.13;95.58;101760.72;4995004;28;20034;-75
2023/04/06 01:50:51;;;;;;;7.13;4.47;;;;;;;1.13;95.76;101746.81;4999453;28;20049;-75
2023/04/06 01:53:16;;;;;;;7.45;4.70;;;;;;;1.15;96.42;101748.53;4995322;28;20602;-75
2023/04/06 01:55:42;;;;;;;7.72;5.25;;;;;;;1.13;96.39;101755.50;4973195;28;20034;-75
2023/04/06 01:58:07;;;;;;;10.38;4.90;;;;;;;1.16;96.73;101752.03;4990511;28;22444;-75
2023/04/06 02:00:33;;;;;;;7.65;4.50;;;;;;;1.13;96.74;101746.81;4970502;28;20469;-75
2023/04/06 02:02:59;;;;;;;7.80;4.80;;;;;;;1.11;96.44;101754.63;4988084;28;20034;-75
2023/04/06 02:05:25;;;;;;;8.30;4.75;;;;;;;1.09;96.41;101743.28;4987722;28;20046;-75
2023/04/06 02:07:51;;;;;;;9.02;5.40;;;;;;;1.10;96.70;101749.38;4992239;28;20125;-75
2023/04/06 02:10:16;;;;;;;6.53;4.20;;;;;;;1.08;96.81;101749.34;4989214;28;20752;-75
2023/04/06 02:12:42;;;;;;;8.55;4.45;;;;;;;1.07;96.55;101739.78;4977416;28;20065;-75
2023/04/06 02:15:08;;;;;;;6.40;4.53;;;;;;;1.05;96.72;101736.31;4989848;28;20045;-75
2023/04/06 02:17:34;;;;;;;7.35;4.97;;;;;;;1.04;97.13;101740.63;4987569;28;20042;-75
2023/04/06 02:19:59;;;;;;;5.82;4.50;;;;;;;1.03;97.35;101728.47;4988978;28;20041;-75
2023/04/06 02:22:25;;;;;;;7.47;4.88;;;;;;;1.00;97.10;101733.66;4974020;28;20064;-75
2023/04/06 02:24:50;;;;;;;6.47;4.28;;;;;;;0.97;96.91;101728.41;4978303;28;20132;-75
2023/04/06 02:27:16;;;;;;;9.57;4.82;;;;;;;0.96;97.33;101738.84;5003416;28;20161;-75
2023/04/06 02:29:41;;;;;;;8.57;5.05;;;;;;;0.91;97.08;101731.84;4992362;28;20063;-75
2023/04/06 02:32:07;;;;;;;7.47;4.50;;;;;;;0.90;97.01;101734.44;4992031;28;20242;-75
2023/04/06 02:34:32;;;;;;;7.90;4.93;;;;;;;0.87;97.41;101727.44;4978020;28;20484;-75
2023/04/06 02:36:58;;;;;;;6.47;4.45;;;;;;;0.85;97.87;101723.06;4959802;28;20037;-75
2023/04/06 02:39:24;;;;;;;7.78;5.10;;;;;;;0.81;97.61;101727.38;4976108;28;20547;-75
2023/04/06 02:41:50;;;;;;;9.25;4.72;;;;;;;0.81;97.55;101727.38;4988156;28;21582;-75
2023/04/06 02:44:15;;;;;;;7.07;4.78;;;;;;;0.77;97.81;101723.03;4990164;28;20144;-75
2023/04/06 02:46:41;;;;;;;7.15;4.82;;;;;;;0.74;98.35;101726.47;4987747;28;20374;-75
2023/04/06 02:49:06;;;;;;;7.78;4.60;;;;;;;0.73;98.67;101721.22;4990381;28;20123;-75
2023/04/06 02:51:33;;;;;;;14.82;5.65;;;;;;;0.72;98.53;101727.31;4989709;28;20038;-75
2023/04/06 02:53:59;;;;;;;7.15;4.80;;;;;;;0.70;99.22;101727.28;4973662;28;20103;-75
2023/04/06 02:56:24;;;;;;;6.47;4.60;;;;;;;0.67;99.09;101715.09;4977096;28;20153;-75
2023/04/06 02:58:50;;;;;;;5.82;4.60;;;;;;;0.66;99.08;101713.34;4988805;28;20049;-75
2023/04/06 03:01:16;;;;;;;8.18;4.78;;;;;;;0.64;98.90;101708.97;4979726;28;20048;-75
2023/04/06 03:03:41;;;;;;;10.93;5.47;;;;;;;0.60;98.89;101708.06;4977240;28;20033;-75
2023/04/06 03:06:07;;;;;;;10.95;5.18;;;;;;;0.59;99.12;101711.53;4973766;28;20029;-75
2023/04/06 03:08:32;;;;;;;9.52;5.10;;;;;;;0.57;99.55;101708.06;4976118;28;20060;-75
2023/04/06 03:10:58;;;;;;;7.22;5.05;;;;;;;0.54;99.48;101708.91;4974889;28;20040;-75
2023/04/06 03:13:23;;;;;;;9.32;5.13;;;;;;;0.54;99.51;101715.81;4976976;28;20054;-75
2023/04/06 03:15:49;;;;;;;8.00;4.85;;;;;;;0.51;100.00;101698.47;4992048;28;20416;-75
2023/04/06 03:18:14;;;;;;;8.52;5.03;;;;;;;0.49;99.97;101704.50;4993178;28;20040;-75
2023/04/06 03:20:40;;;;;;;8.02;5.13;;;;;;;0.47;99.44;101701.00;4993115;28;20053;-75
2023/04/06 03:23:06;;;;;;;8.32;5.25;;;;;;;0.45;100.00;101708.81;4979454;28;20034;-75
2023/04/06 03:25:31;;;;;;;7.40;5.20;;;;;;;0.43;100.00;101699.22;4993714;28;20133;-75
2023/04/06 03:27:57;;;;;;;7.00;4.93;;;;;;;0.43;100.00;101701.84;4978403;28;21306;-75
2023/04/06 03:30:22;;;;;;;7.28;5.22;;;;;;;0.40;100.00;101690.50;4990959;28;20085;-75
2023/04/06 03:32:48;;;;;;;9.20;5.13;;;;;;;0.40;100.00;101695.72;4999150;28;20045;-75
2023/04/06 03:35:14;;;;;;;8.30;5.10;;;;;;;0.40;100.00;101692.25;4996026;28;21762;-75
2023/04/06 03:37:39;;;;;;;7.63;4.90;;;;;;;0.39;100.00;101691.38;4999029;28;20121;-75
2023/04/06 03:40:05;;;;;;;7.15;4.93;;;;;;;0.38;100.00;101692.22;4979627;28;20052;-75
2023/04/06 03:42:32;;;;;;;9.10;5.95;;;;;;;0.38;100.00;101684.41;4995751;28;20052;-75
2023/04/06 03:44:58;;;;;;;9.40;4.75;;;;;;;0.37;100.00;101680.06;4968236;28;20120;-75
2023/04/06 03:47:24;;;;;;;8.98;5.07;;;;;;;0.36;100.00;101683.53;4984922;28;20037;-74
2023/04/06 03:49:50;;;;;;;10.18;5.03;;;;;;;0.34;100.00;101680.03;4996802;28;20055;-74
2023/04/06 03:52:15;;;;;;;8.55;5.10;;;;;;;0.33;100.00;101677.41;4995566;28;20493;-74
2023/04/06 03:54:40;;;;;;;9.73;5.15;;;;;;;0.32;100.00;101686.94;4995335;28;20030;-75
2023/04/06 03:57:06;;;;;;;7.90;5.20;;;;;;;0.30;100.00;101674.75;4992642;28;20143;-74
2023/04/06 03:59:32;;;;;;;10.88;5.13;;;;;;;0.29;100.00;101678.22;4977890;28;20045;-74
2023/04/06 04:01:57;;;;;;;7.32;5.15;;;;;;;0.27;100.00;101678.19;4976454;28;20037;-74
2023/04/06 04:04:23;;;;;;;8.77;5.15;;;;;;;0.24;100.00;101668.66;4971549;28;20108;-74
2023/04/06 04:06:48;;;;;;;10.38;5.60;;;;;;;0.22;100.00;101675.56;4992171;28;20041;-75
2023/04/06 04:09:14;;;;;;;6.55;4.90;;;;;;;0.20;100.00;101676.38;4992577;28;20051;-75
2023/04/06 04:11:39;;;;;;;11.13;5.55;;;;;;;0.19;100.00;101672.03;4992638;28;20045;-74
2023/04/06 04:14:05;;;;;;;7.60;5.30;;;;;;;0.17;100.00;101666.84;4972780;28;20365;-75
2023/04/06 04:16:31;;;;;;;8.23;5.10;;;;;;;0.17;100.00;101678.97;4991880;28;20031;-74
2023/04/06 04:18:57;;;;;;;8.20;5.65;;;;;;;0.16;100.00;101682.44;4990394;28;20037;-76
2023/04/06 04:21:23;;;;;;;9.98;5.70;;;;;;;0.15;100.00;101678.09;4991166;28;20694;-74
2023/04/06 04:23:49;;;;;;;10.57;5.28;;;;;;;0.15;100.00;101672.88;4976672;28;20041;-74
2023/04/06 04:26:15;;;;;;;9.90;5.65;;;;;;;0.15;100.00;101680.69;4991396;28;20095;-74
2023/04/06 04:28:40;;;;;;;8.55;5.45;;;;;;;0.16;100.00;101674.63;4991163;28;20546;-75
2023/04/06 04:31:06;;;;;;;9.40;5.82;;;;;;;0.15;100.00;101671.13;4990237;28;20429;-75
2023/04/06 04:33:31;;;;;;;9.57;5.50;;;;;;;0.16;100.00;101674.63;4991527;28;20050;-75
2023/04/06 04:35:57;;;;;;;7.45;5.28;;;;;;;0.17;100.00;101665.94;4990533;28;20042;-75
2023/04/06 04:38:22;;;;;;;8.70;5.68;;;;;;;0.17;100.00;101665.94;4989546;28;20096;-74
2023/04/06 04:40:48;;;;;;;9.07;5.63;;;;;;;0.17;100.00;101664.22;4976088;28;20106;-75
2023/04/06 04:43:13;;;;;;;10.07;5.40;;;;;;;0.17;100.00;101660.75;4989757;28;20251;-75
2023/04/06 04:45:39;;;;;;;9.27;5.05;;;;;;;0.17;100.00;101661.63;4976416;28;20080;-75
2023/04/06 04:48:05;;;;;;;9.27;5.25;;;;;;;0.17;100.00;101660.75;4962629;28;20109;-75
2023/04/06 04:50:31;;;;;;;11.48;5.28;;;;;;;0.16;100.00;101657.25;4977927;28;20025;-75
2023/04/06 04:52:57;;;;;;;8.75;5.65;;;;;;;0.18;100.00;101662.47;4979983;28;20613;-75
2023/04/06 04:55:22;;;;;;;8.80;6.07;;;;;;;0.19;100.00;101656.41;4991747;28;20061;-75
2023/04/06 04:57:48;;;;;;;9.32;5.35;;;;;;;0.20;100.00;101648.63;4993329;28;20041;-75
2023/04/06 05:00:14;;;;;;;8.25;5.13;;;;;;;0.23;100.00;101650.38;4964360;28;20037;-75
2023/04/06 05:02:40;;;;;;;8.55;5.47;;;;;;;0.24;100.00;101641.72;4990239;28;20044;-75
2023/04/06 05:05:06;;;;;;;8.43;5.72;;;;;;;0.24;100.00;101645.22;4977551;28;20033;-75
2023/04/06 05:07:31;;;;;;;10.30;5.90;;;;;;;0.25;100.00;101649.56;4989811;28;20034;-75
2023/04/06 05:09:57;;;;;;;8.65;5.35;;;;;;;0.25;100.00;101648.66;4990316;28;20516;-75
2023/04/06 05:12:23;;;;;;;8.70;5.15;;;;;;;0.24;100.00;101646.91;4988280;28;20033;-75
2023/04/06 05:14:49;;;;;;;8.45;5.78;;;;;;;0.25;100.00;101646.06;4989756;28;20053;-75
2023/04/06 05:17:14;;;;;;;8.13;5.10;;;;;;;0.28;100.00;101645.22;4972363;28;20716;-75
2023/04/06 05:19:40;;;;;;;11.52;6.35;;;;;;;0.29;100.00;101637.44;4986557;28;20050;-75
2023/04/06 05:22:05;;;;;;;8.45;5.90;;;;;;;0.32;100.00;101644.41;4991499;28;22204;-75
2023/04/06 05:24:31;;;;;;;12.57;6.25;;;;;;;0.34;100.00;101653.09;4990368;28;20344;-75
2023/04/06 05:26:56;;;;;;;10.18;6.03;;;;;;;0.35;100.00;101645.31;4989747;28;20037;-75
2023/04/06 05:29:22;;;;;;;9.60;6.18;;;;;;;0.38;100.00;101634.06;4989748;28;20048;-75
2023/04/06 05:31:48;;;;;;;9.43;6.35;;;;;;;0.40;100.00;101637.53;4975326;28;20052;-75
2023/04/06 05:34:13;;;;;;;10.95;6.03;;;;;;;0.42;100.00;101635.81;4979662;28;20075;-75
2023/04/06 05:36:40;;;;;;;8.68;5.90;;;;;;;0.45;100.00;101633.25;4994414;28;20323;-75
2023/04/06 05:39:05;;;;;;;9.10;5.57;;;;;;;0.48;100.00;101632.41;4993915;28;20516;-75
2023/04/06 05:41:31;;;;;;;9.50;5.97;;;;;;;0.50;100.00;101631.53;4996079;28;20030;-75
2023/04/06 05:43:57;;;;;;;10.88;6.50;;;;;;;0.52;100.00;101628.94;4994765;28;20394;-75
2023/04/06 05:46:22;;;;;;;8.57;5.93;;;;;;;0.56;100.00;101627.25;4993718;28;20183;-75
2023/04/06 05:48:48;;;;;;;9.15;5.75;;;;;;;0.57;100.00;101627.25;5002553;28;20034;-75
2023/04/06 05:51:13;;;;;;;13.13;6.28;;;;;;;0.61;100.00;101626.41;5007520;28;20034;-74
2023/04/06 05:53:39;;;;;;;11.35;6.32;;;;;;;0.63;100.00;101622.09;4959031;28;20046;-75
2023/04/06 05:56:05;;;;;;;10.15;5.70;;;;;;;0.66;100.00;101619.50;4976704;28;21198;-75
2023/04/06 05:58:30;;;;;;;10.02;5.88;;;;;;;0.69;100.00;101615.22;4990169;28;20550;-75
2023/04/06 06:01:00;;;;;;;11.90;6.68;;;;;;;0.72;100.00;101615.22;4991495;28;21743;-75
2023/04/06 06:03:26;;;;;;;8.20;5.55;;;;;;;0.75;100.00;101616.13;4974132;28;20029;-75
2023/04/06 06:05:51;;;;;;;9.60;6.18;;;;;;;0.80;100.00;101619.63;4963941;28;20059;-75
2023/04/06 06:08:17;;;;;;;10.15;6.55;;;;;;;0.85;100.00;101614.44;4979496;28;20042;-75
2023/04/06 06:10:42;;;;;;;12.07;5.97;;;;;;;0.89;100.00;101615.34;4994238;28;20116;-75
2023/04/06 06:13:08;;;;;;;11.95;5.93;;;;;;;0.92;100.00;101618.84;4962971;28;20049;-75
2023/04/06 06:15:34;;;;;;;13.02;5.88;;;;;;;0.96;100.00;101617.13;4971392;28;20038;-76
2023/04/06 06:18:00;;;;;;;9.85;6.22;;;;;;;1.00;100.00;101618.91;4990271;28;20038;-75
2023/04/06 06:20:26;;;;;;;11.13;6.50;;;;;;;1.04;100.00;101615.44;4985724;28;20147;-75
2023/04/06 06:22:52;;;;;;;10.02;5.95;;;;;;;1.08;100.00;101612.00;4988398;28;20045;-75
2023/04/06 06:25:17;;;;;;;10.85;6.25;;;;;;;1.15;100.00;101620.72;4979621;28;20113;-74
2023/04/06 06:27:43;;;;;;;10.90;6.15;;;;;;;1.25;100.00;101623.41;4988724;28;20034;-74
2023/04/06 06:30:09;;;;;;;10.15;6.20;;;;;;;1.33;100.00;101625.22;4987308;28;20471;-74
2023/04/06 06:32:34;;;;;;;9.43;6.32;;;;;;;1.42;100.00;101621.75;4990651;28;20068;-74
2023/04/06 06:35:00;;;;;;;9.90;6.05;;;;;;;1.48;100.00;101621.78;4971792;28;20432;-74
2023/04/06 06:37:25;;;;;;;10.35;5.93;;;;;;;1.57;100.00;101620.09;4971673;28;20042;-74
2023/04/06 06:39:51;;;;;;;11.38;6.28;;;;;;;1.60;100.00;101623.59;4987541;28;20022;-75
2023/04/06 06:42:16;;;;;;;12.57;6.47;;;;;;;1.63;100.00;101615.75;4990781;28;20038;-74
2023/04/06 06:44:42;;;;;;;9.85;6.07;;;;;;;1.66;100.00;101616.63;4976071;28;20041;-74
2023/04/06 06:47:07;;;;;;;9.15;5.95;;;;;;;1.70;100.00;101605.34;4944185;28;20064;-75
2023/04/06 06:49:33;;;;;;;9.65;5.45;;;;;;;1.81;100.00;101614.09;4989888;28;20619;-74
2023/04/06 06:51:59;;;;;;;10.23;5.95;;;;;;;1.97;100.00;101615.00;4967233;28;20049;-74
2023/04/06 06:54:24;;;;;;;10.13;6.45;;;;;;;2.17;100.00;101616.78;4994232;28;20824;-74
2023/04/06 06:56:50;;;;;;;12.07;6.85;;;;;;;2.37;100.00;101613.34;4994822;28;20038;-74
2023/04/06 06:59:16;;;;;;;9.93;6.10;;;;;;;2.55;100.00;101609.88;4990568;28;20048;-74
2023/04/06 07:01:41;;;;;;;13.07;5.82;;;;;;;2.73;100.00;101601.16;4980310;28;20061;-74
2023/04/06 07:04:08;;;;;;;13.43;6.80;;;;;;;2.92;100.00;101604.63;4997191;28;20041;-74
2023/04/06 07:06:35;;;;;;;10.13;6.43;;;;;;;3.10;100.00;101601.09;4995725;28;20045;-74
2023/04/06 07:09:03;;;;;;;12.07;6.32;;;;;;;3.30;100.00;101599.31;4988701;28;20045;-74
2023/04/06 07:11:29;;;;;;;10.40;6.57;;;;;;;3.43;100.00;101598.38;4967900;28;20246;-74
2023/04/06 07:13:55;;;;;;;13.68;7.22;;;;;;;3.55;100.00;101596.63;4995448;28;20064;-76
2023/04/06 07:16:20;;;;;;;14.30;6.55;;;;;;;3.60;99.75;101593.09;4967229;28;20037;-75
2023/04/06 07:18:46;;;;;;;10.52;6.47;;;;;;;3.71;100.00;101592.19;4996624;28;20087;-75
2023/04/06 07:21:11;;;;;;;13.52;6.57;;;;;;;3.77;100.00;101586.91;4968147;28;20591;-75
2023/04/06 07:23:37;;;;;;;9.50;6.05;;;;;;;3.84;99.44;101585.13;4978764;28;20195;-74
2023/04/06 07:26:03;;;;;;;12.38;6.93;;;;;;;3.91;99.48;101582.47;4978851;28;20041;-73
2023/04/06 07:28:28;;;;;;;10.52;6.05;;;;;;;3.98;99.24;101580.66;4977539;28;20421;-73
2023/04/06 07:30:54;;;;;;;10.40;6.30;;;;;;;4.06;98.26;101580.63;4996018;28;20034;-74
2023/04/06 07:33:20;;;;;;;13.15;6.53;;;;;;;4.15;98.35;101569.22;4995236;28;20554;-73
2023/04/06 07:35:45;;;;;;;11.80;6.65;;;;;;;4.27;98.50;101568.25;4970561;28;20045;-74
2023/04/06 07:38:11;;;;;;;10.77;6.47;;;;;;;4.36;97.65;101568.19;4996213;28;20037;-74
2023/04/06 07:40:37;;;;;;;9.73;6.13;;;;;;;4.46;97.65;101567.22;4996901;28;20040;-73
2023/04/06 07:43:02;;;;;;;12.23;6.68;;;;;;;4.54;97.36;101563.69;4995384;28;20381;-73
2023/04/06 07:45:29;;;;;;;10.75;6.07;;;;;;;4.66;97.43;101560.06;4961587;28;20033;-73
2023/04/06 07:47:54;;;;;;;10.48;6.13;;;;;;;4.75;96.35;101562.63;4979772;28;21590;-73
2023/04/06 07:50:20;;;;;;;11.38;6.45;;;;;;;4.86;97.10;101559.88;4992039;28;20052;-74
2023/04/06 07:52:45;;;;;;;12.57;6.60;;;;;;;4.98;96.47;101558.88;4983136;28;20183;-74
2023/04/06 07:55:11;;;;;;;10.77;6.72;;;;;;;5.11;96.51;101559.59;4992982;28;20029;-75
2023/04/06 07:57:37;;;;;;;11.95;6.50;;;;;;;5.25;94.43;101557.72;4978885;28;20053;-73
2023/04/06 08:00:03;;;;;;;10.65;6.05;;;;;;;5.40;94.15;101553.16;4964198;28;20050;-73
2023/04/06 08:02:30;;;;;;;11.10;6.18;;;;;;;5.56;92.83;101548.59;4976211;28;20485;-73
2023/04/06 08:04:58;;;;;;;11.60;6.68;;;;;;;5.72;91.45;101551.84;4975102;28;20630;-75
2023/04/06 08:07:23;;;;;;;12.38;6.80;;;;;;;5.92;91.59;101559.47;4960760;28;20136;-73
2023/04/06 08:09:49;;;;;;;10.90;6.60;;;;;;;6.08;91.42;101557.53;4991811;28;20386;-73
2023/04/06 08:12:14;;;;;;;9.13;6.10;;;;;;;6.25;90.45;101551.13;4978769;28;20076;-73
2023/04/06 08:14:40;;;;;;;11.25;6.68;;;;;;;6.39;88.80;101548.28;4980450;28;20803;-73
2023/04/06 08:17:06;;;;;;;10.70;6.53;;;;;;;6.55;88.13;101542.75;4973069;28;20068;-73
2023/04/06 08:19:31;;;;;;;11.57;6.78;;;;;;;6.68;86.77;101551.28;4978498;28;20041;-73
2023/04/06 08:21:57;;;;;;;9.88;6.28;;;;;;;6.83;87.98;101543.13;4991861;28;20106;-73
2023/04/06 08:24:22;;;;;;;13.57;7.00;;;;;;;6.99;85.33;101548.09;4933635;28;20497;-72
2023/04/06 08:26:48;;;;;;;11.93;6.43;;;;;;;7.11;84.39;101547.00;4946696;28;20034;-72
2023/04/06 08:29:14;;;;;;;10.85;6.82;;;;;;;7.25;82.06;101549.38;4989664;28;20061;-73
2023/04/06 08:31:40;;;;;;;14.48;7.75;;;;;;;7.32;79.99;101545.69;4973741;28;20040;-72
2023/04/06 08:34:05;;;;;;;12.93;6.90;;;;;;;7.38;82.05;101545.56;4989397;28;20637;-73
2023/04/06 08:36:31;;;;;;;12.88;6.97;;;;;;;7.48;83.09;101544.47;4979711;28;20029;-75
2023/04/06 08:38:57;;;;;;;15.13;7.82;;;;;;;7.57;80.68;101550.47;4973393;28;20493;-74
2023/04/06 08:41:23;;;;;;;13.88;7.97;;;;;;;7.61;82.15;101538.94;4971919;28;20708;-72
2023/04/06 08:43:50;;;;;;;12.73;7.22;;;;;;;7.68;80.92;101537.06;4991266;28;21472;-73
2023/04/06 08:46:16;;;;;;;14.77;7.38;;;;;;;7.72;80.87;101536.94;4980986;28;20037;-74
2023/04/06 08:48:42;;;;;;;13.57;7.30;;;;;;;7.78;82.46;101540.34;4977106;28;20068;-74
2023/04/06 08:51:11;;;;;;;13.63;7.50;;;;;;;7.85;81.41;101531.41;4976512;28;20044;-74
2023/04/06 08:53:38;;;;;;;14.98;8.65;;;;;;;7.90;82.12;101526.00;4990812;28;21911;-74
2023/04/06 08:56:04;;;;;;;13.57;8.05;;;;;;;7.96;82.29;101526.72;4960249;28;20121;-74
2023/04/06 08:58:34;;;;;;;13.43;7.35;;;;;;;8.00;80.79;101531.03;4979147;28;20121;-74
2023/04/06 09:01:01;;;;;;;14.35;8.43;;;;;;;8.05;81.28;101519.53;4987040;28;20029;-74
2023/04/06 09:03:28;;;;;;;15.90;8.15;;;;;;;8.13;79.23;101518.41;4981783;28;20442;-74
2023/04/06 09:05:54;;;;;;;14.43;8.43;;;;;;;8.28;81.18;101518.94;4970734;28;20029;-73
2023/04/06 09:08:20;;;;;;;13.65;7.70;;;;;;;8.42;81.36;101516.84;4978987;28;20041;-74
2023/04/06 09:10:45;;;;;;;13.40;7.57;;;;;;;8.58;81.03;101519.09;4988473;28;20041;-73
2023/04/06 09:13:11;;;;;;;12.98;7.65;;;;;;;8.67;81.30;101518.84;4958436;28;20077;-73
2023/04/06 09:15:37;;;;;;;15.57;8.20;;;;;;;8.78;78.45;101509.78;4990776;28;20061;-74
2023/04/06 09:18:09;;;;;;;14.55;7.70;;;;;;;8.91;78.53;101515.59;4999224;28;20037;-74
2023/04/06 09:20:35;;;;;;;15.20;8.73;;;;;;;9.06;77.91;101519.56;4966671;28;20135;-74
2023/04/06 09:23:00;;;;;;;17.00;8.25;;;;;;;9.16;77.50;101518.38;4992907;28;20052;-74
2023/04/06 09:25:29;;;;;;;16.00;8.80;;;;;;;9.33;78.37;101515.25;4991318;28;20052;-73
2023/04/06 09:28:02;;;;;;;15.38;8.63;;;;;;;9.49;73.76;101507.72;4996226;28;20119;-74
2023/04/06 09:30:28;;;;;;;17.23;8.52;;;;;;;9.64;75.27;101514.34;4977271;28;20114;-74
2023/04/06 09:32:55;;;;;;;15.80;8.15;;;;;;;9.75;75.43;101500.78;4996428;28;20043;-74
2023/04/06 09:35:22;;;;;;;17.38;8.95;;;;;;;9.79;74.45;101506.84;4985291;28;20064;-74
2023/04/06 09:37:49;;;;;;;14.77;8.95;;;;;;;9.81;71.07;101502.34;4988173;28;20026;-74
2023/04/06 09:40:17;;;;;;;14.85;8.20;;;;;;;9.82;71.25;101496.19;4964662;28;20145;-74
2023/04/06 09:42:46;;;;;;;14.95;8.95;;;;;;;9.88;71.91;101495.13;4986211;28;20037;-74
2023/04/06 09:45:11;;;;;;;15.63;9.32;;;;;;;9.94;73.52;101496.69;4981525;28;20038;-75
2023/04/06 09:47:37;;;;;;;18.15;8.95;;;;;;;10.01;71.23;101490.28;4993556;28;20052;-74
2023/04/06 09:50:03;;;;;;;16.30;8.85;;;;;;;9.99;71.48;101495.63;4976637;28;20120;-74
2023/04/06 09:52:33;;;;;;;15.68;8.98;;;;;;;9.97;70.99;101499.25;4978064;28;20099;-72
2023/04/06 09:55:04;;;;;;;16.80;9.45;;;;;;;9.96;69.97;101490.44;4963615;28;20121;-73
2023/04/06 09:57:35;;;;;;;15.77;8.90;;;;;;;10.00;70.10;101488.56;4986515;28;20045;-74
2023/04/06 10:00:10;;;;;;;18.73;9.00;;;;;;;9.99;66.78;101489.47;4980696;28;20338;-73
2023/04/06 10:02:46;;;;;;;15.65;8.80;;;;;;;9.97;70.27;101486.88;4987599;28;20037;-73
2023/04/06 10:05:35;;;;;;;14.55;8.48;;;;;;;9.95;64.86;101487.81;4974684;28;20056;-73
2023/04/06 10:08:06;;;;;;;17.92;8.93;;;;;;;9.88;67.55;101488.06;4989659;28;20053;-72
2023/04/06 10:10:32;;;;;;;15.95;9.30;;;;;;;9.86;69.74;101494.31;4986433;28;20567;-73
2023/04/06 10:12:57;;;;;;;18.52;8.88;;;;;;;9.82;70.72;101493.53;4994600;28;20050;-72
2023/04/06 10:15:24;;;;;;;18.80;8.88;;;;;;;9.83;70.99;101494.38;4958515;28;20432;-71
2023/04/06 10:17:49;;;;;;;17.15;9.23;;;;;;;9.83;71.76;101489.97;4992889;28;20045;-73
2023/04/06 10:20:22;;;;;;;17.23;8.27;;;;;;;9.86;70.44;101486.38;4958860;28;20076;-73
2023/04/06 10:22:56;;;;;;;17.52;9.38;;;;;;;9.87;70.01;101486.28;4957176;28;20038;-73
2023/04/06 10:25:32;;;;;;;16.85;9.35;;;;;;;9.86;67.79;101489.88;4978352;28;20038;-73
2023/04/06 10:28:05;;;;;;;17.60;9.60;;;;;;;9.87;70.13;101493.38;4989298;28;20566;-73
2023/04/06 10:30:30;;;;;;;20.25;9.88;;;;;;;9.86;67.91;101489.88;4983393;28;20033;-77
2023/04/06 10:32:56;;;;;;;16.77;8.80;;;;;;;9.86;71.11;101494.31;4968691;28;20087;-76
2023/04/06 10:35:22;;;;;;;18.27;9.70;;;;;;;9.87;69.72;101481.00;4996816;28;20041;-76
2023/04/06 10:37:51;;;;;;;17.25;9.23;;;;;;;9.87;68.56;101485.44;4980983;28;20327;-78
2023/04/06 10:40:25;;;;;;;18.52;9.52;;;;;;;9.89;68.92;101488.91;4974750;28;20721;-74
2023/04/06 10:42:54;;;;;;;17.92;9.00;;;;;;;9.94;70.24;101486.97;4980159;28;20373;-74
2023/04/06 10:45:22;;;;;;;17.50;9.68;;;;;;;9.97;70.34;101486.88;4979790;28;20400;-74
2023/04/06 10:47:48;;;;;;;16.85;10.65;;;;;;;10.01;69.83;101482.34;4977695;28;20033;-73
2023/04/06 10:50:16;;;;;;;19.63;9.55;;;;;;;10.00;70.31;101480.63;4978036;28;20061;-73
2023/04/06 10:52:43;;;;;;;21.08;9.77;;;;;;;10.01;68.98;101480.56;4966531;28;20064;-73
2023/04/06 10:55:11;;;;;;;19.35;9.77;;;;;;;10.03;69.92;101475.25;4990020;28;20130;-74
2023/04/06 10:57:37;;;;;;;18.80;10.02;;;;;;;10.11;69.94;101474.97;4992513;28;20046;-73
2023/04/06 11:00:07;;;;;;;17.35;10.10;;;;;;;10.16;69.43;101471.28;4992663;28;20408;-74
2023/04/06 11:02:35;;;;;;;20.05;10.45;;;;;;;10.22;69.79;101474.59;4991703;28;20038;-74
2023/04/06 11:05:01;;;;;;;20.08;10.18;;;;;;;10.25;67.64;101474.50;4977739;28;20034;-74
2023/04/06 11:07:29;;;;;;;20.80;10.32;;;;;;;10.26;68.12;101479.75;4977317;28;20076;-74
2023/04/06 11:09:54;;;;;;;20.98;10.25;;;;;;;10.29;68.62;101465.53;4975187;28;20035;-73
2023/04/06 11:12:24;;;;;;;21.55;10.30;;;;;;;10.29;68.76;101466.41;4991445;28;20250;-74
2023/04/06 11:15:05;;;;;;;22.67;10.77;;;;;;;10.34;67.91;101474.19;4985574;28;21886;-75
2023/04/06 11:17:35;;;;;;;21.08;10.20;;;;;;;10.38;68.29;101465.22;4970376;28;21669;-76
2023/04/06 11:20:02;;;;;;;20.63;10.75;;;;;;;10.42;69.03;101477.47;4974229;28;20069;-76